Time;durP1;ratioP1;P1;durP2;ratioP2;P2;SDS_P1;SDS_P2;PMS_P1;PMS_P2;Temp;Humidity;BMP_temperature;BMP_pressure;BME280_temperature;BME280_humidity;BME280_pressure;Samples;Min_cycle;Max_cycle;Signal;HPM_P1;HPM_P2
2021/01/31 00:01:36;;;;;;;11.47;7.17;;;;;;;5.18;100.00;100282.10;1777410;81;26234;-74
2021/01/31 00:04:06;;;;;;;11.63;6.67;;;;;;;5.14;100.00;100294.70;1777320;80;26325;-75
2021/01/31 00:06:36;;;;;;;11.90;5.93;;;;;;;5.14;100.00;100297.45;1777362;81;26810;-75
2021/01/31 00:09:06;;;;;;;12.03;6.70;;;;;;;5.06;100.00;100309.78;1777424;80;26289;-74
2021/01/31 00:11:36;;;;;;;11.57;5.93;;;;;;;4.95;100.00;100313.02;1777421;80;26234;-75
2021/01/31 00:14:06;;;;;;;14.13;6.00;;;;;;;4.82;100.00;100320.31;1777301;81;26300;-75
2021/01/31 00:16:36;;;;;;;17.07;6.07;;;;;;;4.90;100.00;100320.38;1777312;81;26708;-74
2021/01/31 00:19:06;;;;;;;12.10;6.03;;;;;;;4.88;100.00;100316.50;1777439;80;26673;-74
2021/01/31 00:21:35;;;;;;;12.73;5.53;;;;;;;4.83;100.00;100313.73;1777398;80;26612;-74
2021/01/31 00:24:07;;;;;;;10.03;5.50;;;;;;;4.71;100.00;100315.78;1777255;80;26953;-75
2021/01/31 00:26:37;;;;;;;8.43;4.70;;;;;;;4.56;100.00;100319.77;1777353;81;26705;-74
2021/01/31 00:29:07;;;;;;;8.23;5.30;;;;;;;4.56;100.00;100321.14;1777397;81;26680;-74
2021/01/31 00:31:36;;;;;;;9.77;5.33;;;;;;;4.54;100.00;100318.64;1777348;80;26747;-75
2021/01/31 00:34:06;;;;;;;12.07;4.80;;;;;;;4.41;100.00;100312.16;1777521;80;26230;-74
2021/01/31 00:36:36;;;;;;;10.97;4.90;;;;;;;4.41;100.00;100315.45;1777353;81;26227;-74
2021/01/31 00:39:08;;;;;;;9.37;4.57;;;;;;;4.32;100.00;100322.52;1777323;80;26230;-74
2021/01/31 00:41:38;;;;;;;8.83;4.50;;;;;;;4.31;100.00;100323.61;1777422;80;26690;-74
2021/01/31 00:44:10;;;;;;;11.27;4.53;;;;;;;4.30;100.00;100331.56;1777403;80;26307;-75
2021/01/31 00:46:42;;;;;;;10.40;4.53;;;;;;;4.29;100.00;100329.35;1759122;81;934082;-75
2021/01/31 00:49:12;;;;;;;9.07;4.30;;;;;;;4.23;100.00;100328.19;1740086;80;934872;-74
2021/01/31 00:51:42;;;;;;;8.27;3.87;;;;;;;4.11;100.00;100325.00;1755999;79;932607;-74
2021/01/31 00:54:12;;;;;;;9.63;4.43;;;;;;;4.09;100.00;100329.94;1742166;80;934504;-75
2021/01/31 00:56:42;;;;;;;7.80;4.13;;;;;;;4.16;100.00;100341.27;1772625;80;932645;-75
2021/01/31 00:59:12;;;;;;;7.13;3.73;;;;;;;4.15;100.00;100339.06;1754942;79;934377;-75
2021/01/31 01:01:41;;;;;;;8.27;3.90;;;;;;;4.08;100.00;100340.64;1794390;79;932621;-74
2021/01/31 01:04:12;;;;;;;8.90;3.70;;;;;;;3.94;100.00;100348.13;1782729;78;934444;-74
2021/01/31 01:06:41;;;;;;;6.73;3.40;;;;;;;3.94;100.00;100347.59;1794538;78;932657;-74
2021/01/31 01:09:15;;;;;;;8.17;3.87;;;;;;;4.01;100.00;100350.16;1782815;78;934448;-75
2021/01/31 01:11:45;;;;;;;6.33;3.30;;;;;;;3.95;100.00;100342.92;1742891;80;932498;-75
2021/01/31 01:14:15;;;;;;;6.67;4.03;;;;;;;3.73;100.00;100351.67;1782685;78;934443;-75
2021/01/31 01:16:44;;;;;;;6.73;3.60;;;;;;;3.82;100.00;100351.53;1794483;79;932568;-75
2021/01/31 01:19:14;;;;;;;10.00;3.30;;;;;;;3.74;100.00;100350.59;1782732;78;934582;-75
2021/01/31 01:21:44;;;;;;;9.23;4.37;;;;;;;3.65;100.00;100350.19;1794476;78;934644;-75
2021/01/31 01:24:14;;;;;;;8.67;3.63;;;;;;;3.73;100.00;100353.88;1782533;78;934701;-75
2021/01/31 01:26:44;;;;;;;6.50;2.90;;;;;;;3.64;100.00;100359.50;1794426;78;932553;-75
2021/01/31 01:29:14;;;;;;;5.00;3.20;;;;;;;3.50;100.00;100368.66;1782741;78;934669;-76
2021/01/31 01:31:43;;;;;;;7.22;2.98;;;;;;;3.62;100.00;100366.64;1794312;79;932586;-75
2021/01/31 01:34:13;;;;;;;6.10;2.70;;;;;;;3.48;100.00;100371.34;1782663;79;934707;-75
2021/01/31 01:36:43;;;;;;;3.70;2.63;;;;;;;3.41;100.00;100364.66;1794426;79;932602;-75
2021/01/31 01:39:13;;;;;;;6.27;2.80;;;;;;;3.39;100.00;100368.19;1782623;79;934458;-75
2021/01/31 01:41:45;;;;;;;7.20;2.63;;;;;;;3.35;100.00;100364.81;1794443;79;932804;-75
2021/01/31 01:44:15;;;;;;;6.13;2.17;;;;;;;3.40;100.00;100371.23;1782677;78;934573;-74
2021/01/31 01:46:48;;;;;;;5.90;2.17;;;;;;;3.37;100.00;100369.53;1794452;79;932499;-74
2021/01/31 01:49:23;;;;;;;4.27;2.10;;;;;;;3.06;100.00;100378.61;1743664;80;934465;-74
2021/01/31 01:51:56;;;;;;;5.17;2.43;;;;;;;2.95;100.00;100380.86;1790919;78;934442;-74
2021/01/31 01:54:30;;;;;;;7.07;2.40;;;;;;;2.89;100.00;100389.27;1794526;79;934412;-74
2021/01/31 01:57:03;;;;;;;5.72;2.45;;;;;;;2.86;100.00;100390.60;1782627;79;934599;-75
2021/01/31 01:59:36;;;;;;;6.10;2.37;;;;;;;2.84;100.00;100393.28;1794432;78;934597;-75
2021/01/31 02:02:10;;;;;;;6.47;2.10;;;;;;;2.88;100.00;100393.08;1731398;80;935620;-75
2021/01/31 02:04:41;;;;;;;3.93;2.47;;;;;;;2.89;100.00;100383.78;1794469;79;932826;-76
2021/01/31 02:07:12;;;;;;;4.37;2.10;;;;;;;2.79;100.00;100384.95;1782688;79;934662;-76
2021/01/31 02:09:44;;;;;;;3.53;2.03;;;;;;;2.72;100.00;100381.84;1794490;79;932609;-75
2021/01/31 02:12:16;;;;;;;5.47;2.50;;;;;;;2.73;100.00;100387.62;1782529;79;934744;-74
2021/01/31 02:14:47;;;;;;;9.30;2.23;;;;;;;2.66;100.00;100392.40;1794402;79;932579;-75
2021/01/31 02:17:21;;;;;;;7.37;2.47;;;;;;;2.61;100.00;100394.23;1794345;78;934807;-74
2021/01/31 02:20:27;;;;;;;5.75;1.90;;;;;;;2.53;100.00;100387.20;1794227;78;934601;-76
2021/01/31 02:23:23;;;;;;;3.60;1.90;;;;;;;2.39;100.00;100368.03;1782569;78;934623;-75
2021/01/31 02:26:10;;;;;;;4.43;1.77;;;;;;;2.50;100.00;100389.06;1781677;78;934579;-75
2021/01/31 02:28:57;;;;;;;5.13;1.73;;;;;;;2.52;100.00;100386.93;1794270;79;932621;-75
2021/01/31 02:31:54;;;;;;;7.30;1.93;;;;;;;2.56;100.00;100383.16;1794333;78;934437;-74
2021/01/31 02:34:32;;;;;;;3.77;1.70;;;;;;;2.59;100.00;100382.66;1794292;79;934615;-75
2021/01/31 02:37:10;;;;;;;5.28;1.60;;;;;;;2.57;100.00;100386.17;1782587;78;934472;-76
2021/01/31 02:39:44;;;;;;;5.20;1.43;;;;;;;2.49;100.00;100375.59;1793972;78;932587;-75
2021/01/31 02:42:24;;;;;;;4.17;1.30;;;;;;;2.46;100.00;100377.47;1782616;79;934668;-74
2021/01/31 02:45:02;;;;;;;3.73;1.53;;;;;;;2.66;100.00;100380.06;1744955;80;934576;-74
2021/01/31 02:47:34;;;;;;;5.37;1.70;;;;;;;2.57;100.00;100372.46;1794482;79;934407;-77
2021/01/31 02:50:08;;;;;;;3.30;1.60;;;;;;;2.59;100.00;100371.16;1782673;79;934559;-77
2021/01/31 02:52:41;;;;;;;3.20;1.63;;;;;;;2.54;100.00;100362.83;1794359;77;932538;-74
2021/01/31 02:55:14;;;;;;;5.40;1.60;;;;;;;2.79;100.00;100361.10;1782651;78;934451;-74
2021/01/31 02:57:47;;;;;;;6.67;2.30;;;;;;;2.99;100.00;100351.89;1794509;77;932543;-74
2021/01/31 03:00:21;;;;;;;6.40;1.60;;;;;;;2.92;100.00;100342.97;1794458;78;934614;-74
2021/01/31 03:02:55;;;;;;;5.62;1.50;;;;;;;2.97;100.00;100344.44;1757890;80;934610;-75
2021/01/31 03:05:28;;;;;;;5.60;1.50;;;;;;;2.89;100.00;100337.98;1735836;81;934514;-74
2021/01/31 03:08:03;;;;;;;4.97;1.40;;;;;;;2.94;100.00;100334.50;1755368;79;934432;-74
2021/01/31 03:10:37;;;;;;;4.83;1.53;;;;;;;2.81;100.00;100339.77;1747658;80;934636;-74
2021/01/31 03:13:11;;;;;;;4.23;1.70;;;;;;;2.81;100.00;100339.77;1761368;78;934407;-74
2021/01/31 03:15:47;;;;;;;2.90;1.50;;;;;;;2.88;100.00;100350.56;1773101;78;932563;-75
2021/01/31 03:18:20;;;;;;;4.97;2.07;;;;;;;2.90;100.00;100362.13;1772881;79;934429;-74
2021/01/31 03:20:56;;;;;;;7.67;2.00;;;;;;;2.95;100.00;100355.37;1772895;79;932583;-76
2021/01/31 03:23:31;;;;;;;4.83;2.13;;;;;;;2.98;100.00;100350.22;1772744;80;934598;-74
2021/01/31 03:26:04;;;;;;;7.03;2.05;;;;;;;3.10;100.00;100344.65;1758985;79;934489;-76
2021/01/31 03:28:35;;;;;;;5.13;1.73;;;;;;;3.10;100.00;100340.53;1743046;80;934550;-75
2021/01/31 03:31:06;;;;;;;6.07;1.50;;;;;;;3.05;100.00;100342.65;1733057;80;934459;-76
2021/01/31 03:33:39;;;;;;;6.17;1.80;;;;;;;2.91;100.00;100349.52;1744353;80;932793;-76
2021/01/31 03:36:10;;;;;;;7.28;1.72;;;;;;;2.80;100.00;100349.06;1754088;80;934627;-76
2021/01/31 03:38:43;;;;;;;6.87;2.70;;;;;;;2.96;100.00;100338.65;1742829;80;932577;-76
2021/01/31 03:41:16;;;;;;;5.80;1.93;;;;;;;2.83;100.00;100348.56;1761420;79;934565;-77
2021/01/31 03:43:46;;;;;;;4.13;1.40;;;;;;;2.91;100.00;100349.52;1776042;79;932663;-76
2021/01/31 03:46:18;;;;;;;3.50;1.23;;;;;;;2.81;100.00;100360.33;1760938;79;960822;-76
2021/01/31 03:48:51;;;;;;;2.93;1.27;;;;;;;2.93;100.00;100366.58;1772853;79;932822;-74
2021/01/31 03:51:22;;;;;;;5.07;1.63;;;;;;;2.92;100.00;100377.79;1772843;79;934714;-77
2021/01/31 03:53:52;;;;;;;9.20;1.63;;;;;;;2.91;100.00;100378.89;1761189;79;934746;-76
2021/01/31 03:56:25;;;;;;;5.67;1.50;;;;;;;2.73;100.00;100377.19;1772928;79;934441;-76
2021/01/31 03:58:58;;;;;;;5.37;1.70;;;;;;;2.91;100.00;100384.38;1761297;79;934706;-76
2021/01/31 04:01:30;;;;;;;8.13;1.90;;;;;;;2.75;100.00;100382.70;1772882;79;933597;-76
2021/01/31 04:04:05;;;;;;;7.67;1.95;;;;;;;2.97;100.00;100372.41;1761234;79;934884;-76
2021/01/31 04:06:38;;;;;;;4.92;1.37;;;;;;;2.92;100.00;100373.67;1772959;79;934681;-76
2021/01/31 04:09:11;;;;;;;2.87;1.42;;;;;;;2.74;100.00;100377.45;1761324;79;934360;-75
2021/01/31 04:11:42;;;;;;;3.87;1.53;;;;;;;2.89;100.00;100385.98;1772902;79;932694;-76
2021/01/31 04:14:16;;;;;;;4.80;1.30;;;;;;;2.82;100.00;100388.05;1761303;79;934783;-77
2021/01/31 04:16:48;;;;;;;3.13;1.50;;;;;;;2.93;100.00;100387.69;1772978;79;932532;-75
2021/01/31 04:19:20;;;;;;;3.07;1.43;;;;;;;2.85;100.00;100371.64;1772975;79;934557;-75
2021/01/31 04:21:51;;;;;;;5.63;1.60;;;;;;;2.98;100.00;100358.98;1772933;79;932605;-76
2021/01/31 04:24:21;;;;;;;4.07;1.53;;;;;;;2.92;100.00;100358.59;1772904;79;934544;-75
2021/01/31 04:26:51;;;;;;;5.93;1.73;;;;;;;2.92;100.00;100353.11;1766672;79;934569;-76
2021/01/31 04:29:21;;;;;;;7.90;2.10;;;;;;;2.80;100.00;100338.09;1766776;78;934444;-75
2021/01/31 04:31:52;;;;;;;5.60;2.07;;;;;;;2.98;100.00;100350.22;1793686;78;934686;-77
2021/01/31 04:34:21;;;;;;;4.80;1.87;;;;;;;3.06;100.00;100347.60;1786097;79;934515;-75
2021/01/31 04:36:52;;;;;;;4.70;1.75;;;;;;;2.95;100.00;100346.58;1774980;79;934487;-76
2021/01/31 04:39:21;;;;;;;4.97;1.92;;;;;;;2.98;100.00;100333.77;1796400;77;934500;-75
2021/01/31 04:41:51;;;;;;;7.47;1.73;;;;;;;2.88;100.00;100349.19;1786019;77;934552;-75
2021/01/31 04:44:23;;;;;;;5.27;1.60;;;;;;;2.82;100.00;100331.84;1783339;78;934418;-76
2021/01/31 04:46:56;;;;;;;4.93;1.70;;;;;;;3.05;100.00;100350.05;1782599;78;934759;-76
2021/01/31 04:49:42;;;;;;;5.13;1.83;;;;;;;2.95;100.00;100349.31;1794003;78;934441;-76
2021/01/31 04:52:28;;;;;;;4.80;1.50;;;;;;;3.02;100.00;100345.06;1782637;79;934702;-75
2021/01/31 04:55:15;;;;;;;4.08;1.77;;;;;;;3.09;100.00;100349.30;1782501;79;934419;-75
2021/01/31 04:57:48;;;;;;;3.00;1.63;;;;;;;3.00;100.00;100355.44;1755603;79;932621;-75
2021/01/31 05:00:21;;;;;;;7.97;1.90;;;;;;;2.91;100.00;100366.55;1731694;80;934604;-76
2021/01/31 05:02:55;;;;;;;3.57;1.67;;;;;;;2.91;100.00;100366.55;1767578;79;934515;-77
2021/01/31 05:05:27;;;;;;;5.23;1.50;;;;;;;2.92;100.00;100376.42;1822812;76;934516;-75
2021/01/31 05:07:59;;;;;;;3.93;1.50;;;;;;;3.05;100.00;100367.88;1802540;77;934492;-76
2021/01/31 05:10:30;;;;;;;5.80;2.00;;;;;;;3.06;100.00;100364.06;1814310;78;934821;-75
2021/01/31 05:13:12;;;;;;;5.72;1.72;;;;;;;3.04;100.00;100360.19;1788034;78;934579;-74
2021/01/31 05:15:46;;;;;;;7.03;1.80;;;;;;;2.96;100.00;100363.34;1801120;78;932623;-74
2021/01/31 05:18:19;;;;;;;5.70;1.93;;;;;;;2.98;100.00;100369.42;1814156;78;934773;-75
2021/01/31 05:20:52;;;;;;;12.37;2.33;;;;;;;2.91;100.00;100360.50;1814135;77;932834;-75
2021/01/31 05:23:22;;;;;;;6.00;1.60;;;;;;;3.00;100.00;100354.91;1814120;77;936705;-75
2021/01/31 05:25:52;;;;;;;5.43;1.90;;;;;;;2.86;100.00;100347.25;1803129;77;934462;-75
2021/01/31 05:28:24;;;;;;;3.10;2.07;;;;;;;2.75;100.00;100349.80;1825758;76;934486;-75
2021/01/31 05:30:54;;;;;;;5.33;1.67;;;;;;;2.73;100.00;100354.72;1802151;77;934513;-75
2021/01/31 05:33:24;;;;;;;5.17;1.90;;;;;;;2.67;100.00;100352.94;1814041;77;934535;-74
2021/01/31 05:35:57;;;;;;;3.00;1.57;;;;;;;2.69;100.00;100356.28;1802229;77;934549;-75
2021/01/31 05:38:37;;;;;;;7.17;2.13;;;;;;;2.78;100.00;100349.87;1812227;78;934719;-75
2021/01/31 05:41:31;;;;;;;4.30;1.72;;;;;;;2.74;100.00;100359.09;1802286;77;934469;-76
2021/01/31 05:44:04;;;;;;;4.60;1.67;;;;;;;2.88;100.00;100350.03;1779236;79;934659;-75
2021/01/31 05:46:41;;;;;;;2.67;1.40;;;;;;;2.64;100.00;100338.36;1825140;77;934690;-75
2021/01/31 05:49:15;;;;;;;2.80;1.60;;;;;;;2.73;100.00;100336.89;1813184;77;934510;-75
2021/01/31 05:51:47;;;;;;;2.33;1.30;;;;;;;2.62;100.00;100340.50;1815486;77;932669;-76
2021/01/31 05:54:23;;;;;;;5.57;1.70;;;;;;;2.70;100.00;100338.73;1814201;77;934514;-76
2021/01/31 05:56:54;;;;;;;5.50;1.70;;;;;;;2.57;100.00;100334.08;1802188;77;934486;-76
2021/01/31 05:59:24;;;;;;;4.03;1.60;;;;;;;2.47;100.00;100329.80;1814271;78;934572;-75
2021/01/31 06:01:57;;;;;;;7.13;2.00;;;;;;;2.49;100.00;100326.26;1802376;77;934558;-75
2021/01/31 06:04:28;;;;;;;6.70;1.93;;;;;;;2.39;100.00;100332.40;1814250;77;934629;-75
2021/01/31 06:07:06;;;;;;;3.35;1.80;;;;;;;2.52;100.00;100329.37;1802430;77;934763;-76
2021/01/31 06:09:41;;;;;;;3.67;1.75;;;;;;;2.58;100.00;100333.02;1814210;78;934465;-76
2021/01/31 06:12:15;;;;;;;5.73;2.27;;;;;;;2.40;100.00;100337.31;1802299;77;934850;-75
2021/01/31 06:14:47;;;;;;;3.30;1.87;;;;;;;2.27;100.00;100337.06;1814198;77;932883;-76
2021/01/31 06:17:21;;;;;;;6.67;2.00;;;;;;;2.36;100.00;100336.14;1814241;77;934935;-76
2021/01/31 06:19:58;;;;;;;5.40;1.87;;;;;;;2.47;100.00;100332.54;1786886;79;934551;-77
2021/01/31 06:22:39;;;;;;;4.13;2.00;;;;;;;2.45;100.00;100324.55;1794863;78;934445;-76
2021/01/31 06:25:14;;;;;;;4.87;2.55;;;;;;;2.43;100.00;100325.89;1808470;77;934579;-76
2021/01/31 06:27:44;;;;;;;5.07;2.03;;;;;;;2.51;100.00;100322.75;1814240;77;932866;-75
2021/01/31 06:30:26;;;;;;;4.47;1.80;;;;;;;2.32;100.00;100317.16;1741410;80;934517;-77
2021/01/31 06:32:56;;;;;;;3.77;2.20;;;;;;;2.20;100.00;100312.56;1802162;77;934663;-75
2021/01/31 06:35:27;;;;;;;5.30;2.03;;;;;;;2.37;100.00;100313.15;1814192;77;934406;-74
2021/01/31 06:38:11;;;;;;;5.60;2.17;;;;;;;2.28;100.00;100302.58;1802307;78;934406;-76
2021/01/31 06:40:47;;;;;;;6.95;2.40;;;;;;;2.16;100.00;100298.22;1813874;77;932588;-75
2021/01/31 06:43:32;;;;;;;5.17;2.37;;;;;;;2.40;100.00;100297.05;1813258;77;933303;-75
2021/01/31 06:46:05;;;;;;;6.60;2.23;;;;;;;2.22;100.00;100298.63;1802145;77;934486;-74
2021/01/31 06:48:42;;;;;;;8.13;2.60;;;;;;;2.18;100.00;100304.31;1814120;77;934880;-75
2021/01/31 06:51:42;;;;;;;9.10;2.70;;;;;;;2.28;100.00;100311.33;1774800;79;934648;-75
2021/01/31 06:54:53;;;;;;;5.70;2.70;;;;;;;2.17;100.00;100310.86;1798010;77;934724;-76
2021/01/31 06:57:36;;;;;;;8.07;3.07;;;;;;;2.10;100.00;100308.23;1819291;77;934554;-74
2021/01/31 07:00:16;;;;;;;7.67;2.47;;;;;;;2.21;100.00;100296.42;1802292;77;934375;-76
2021/01/31 07:03:02;;;;;;;7.30;2.80;;;;;;;2.19;100.00;100300.47;1813809;77;932775;-74
2021/01/31 07:06:04;;;;;;;8.73;2.60;;;;;;;2.31;100.00;100289.48;1813936;77;934414;-75
2021/01/31 07:09:01;;;;;;;8.73;2.60;;;;;;;2.26;100.00;100291.58;1813987;77;934506;-74
2021/01/31 07:11:37;;;;;;;5.73;2.23;;;;;;;2.10;100.00;100293.70;1814320;77;934659;-77
2021/01/31 07:14:36;;;;;;;5.90;2.67;;;;;;;2.15;100.00;100289.17;1802418;78;934384;-75
2021/01/31 07:17:16;;;;;;;3.80;1.93;;;;;;;2.09;100.00;100285.22;1802222;77;934484;-75
2021/01/31 07:19:51;;;;;;;5.17;2.37;;;;;;;2.34;100.00;100270.64;1814285;77;932554;-75
2021/01/31 07:22:24;;;;;;;5.70;2.57;;;;;;;2.13;100.00;100267.22;1772688;79;934511;-76
2021/01/31 07:24:56;;;;;;;6.17;2.10;;;;;;;2.22;100.00;100268.49;1802100;77;933673;-77
2021/01/31 07:27:29;;;;;;;4.83;2.23;;;;;;;2.24;100.00;100263.05;1814128;77;934497;-77
2021/01/31 07:30:08;;;;;;;6.23;2.20;;;;;;;2.07;100.00;100259.96;1802360;78;934391;-78
2021/01/31 07:33:06;;;;;;;8.43;2.40;;;;;;;2.24;100.00;100260.84;1814202;77;932604;-75
2021/01/31 07:35:39;;;;;;;4.10;2.30;;;;;;;2.01;100.00;100262.33;1813992;77;934571;-75
2021/01/31 07:38:16;;;;;;;5.45;2.67;;;;;;;1.83;100.00;100273.75;1761249;79;934421;-76
2021/01/31 07:40:48;;;;;;;3.97;2.47;;;;;;;1.79;100.00;100289.53;1814291;78;932477;-75
2021/01/31 07:43:21;;;;;;;7.23;3.13;;;;;;;1.70;100.00;100291.81;1814216;78;934459;-76
2021/01/31 07:45:57;;;;;;;8.08;3.00;;;;;;;1.75;100.00;100292.45;1805944;77;934444;-77
2021/01/31 07:48:35;;;;;;;5.87;2.60;;;;;;;1.79;100.00;100282.16;1776766;79;934596;-76
2021/01/31 07:51:08;;;;;;;4.03;2.58;;;;;;;1.60;100.00;100291.58;1804204;77;934508;-76
2021/01/31 07:53:40;;;;;;;5.50;3.07;;;;;;;1.79;100.00;100290.37;1814250;78;932585;-77
2021/01/31 07:56:31;;;;;;;5.20;2.70;;;;;;;1.92;100.00;100289.80;1802487;78;934567;-76
2021/01/31 07:59:04;;;;;;;7.10;3.27;;;;;;;1.94;100.00;100279.41;1761127;79;934710;-76
2021/01/31 08:01:49;;;;;;;6.95;2.58;;;;;;;2.09;100.00;100272.89;1812001;77;934422;-76
2021/01/31 08:04:48;;;;;;;6.60;2.87;;;;;;;1.89;100.00;100283.41;1814308;77;934511;-76
2021/01/31 08:07:54;;;;;;;7.27;3.47;;;;;;;2.08;100.00;100277.53;1814202;77;934657;-75
2021/01/31 08:11:03;;;;;;;4.93;2.83;;;;;;;2.25;100.00;100279.79;1772691;79;934455;-75
2021/01/31 08:13:42;;;;;;;9.33;3.20;;;;;;;2.27;100.00;100263.92;1814360;78;934480;-75
2021/01/31 08:16:47;;;;;;;6.67;3.23;;;;;;;2.23;100.00;100255.06;1802380;78;934639;-75
2021/01/31 08:19:27;;;;;;;4.87;2.73;;;;;;;2.35;100.00;100250.39;1813443;77;934741;-77
2021/01/31 08:22:00;;;;;;;6.28;2.70;;;;;;;2.44;100.00;100246.14;1760987;79;934760;-75
2021/01/31 08:25:04;;;;;;;5.73;3.10;;;;;;;2.48;100.00;100240.45;1814218;77;934508;-77
2021/01/31 08:27:54;;;;;;;6.03;3.43;;;;;;;2.31;100.00;100245.08;1814149;78;934555;-75
2021/01/31 08:30:28;;;;;;;9.35;3.55;;;;;;;2.50;100.00;100256.12;1814189;78;934834;-79
2021/01/31 08:33:27;;;;;;;7.60;3.77;;;;;;;2.33;100.00;100258.54;1779292;78;934443;-77
2021/01/31 08:36:03;;;;;;;10.25;3.55;;;;;;;2.44;100.00;100252.99;1813171;76;934604;-76
2021/01/31 08:38:37;;;;;;;9.43;3.10;;;;;;;2.38;100.00;100253.16;1823097;77;936532;-77
2021/01/31 08:41:43;;;;;;;7.25;3.58;;;;;;;2.60;100.00;100243.14;1802358;78;934651;-75
2021/01/31 08:44:56;;;;;;;8.20;3.50;;;;;;;2.59;100.00;100236.83;1797985;77;934586;-75
2021/01/31 08:47:28;;;;;;;5.90;3.03;;;;;;;2.69;100.00;100222.47;1707968;80;934718;-75
2021/01/31 08:50:03;;;;;;;8.85;4.37;;;;;;;2.52;100.00;100221.09;1696704;82;934531;-75
2021/01/31 08:52:33;;;;;;;6.57;3.70;;;;;;;2.53;100.00;100221.36;1708000;82;934861;-77
2021/01/31 08:55:07;;;;;;;6.37;3.47;;;;;;;2.71;100.00;100221.66;1696791;82;934632;-74
2021/01/31 08:57:37;;;;;;;7.03;4.27;;;;;;;2.85;100.00;100213.41;1708082;82;932993;-75
2021/01/31 09:00:14;;;;;;;13.32;3.87;;;;;;;2.89;100.00;100212.36;1696935;82;934504;-74
2021/01/31 09:02:46;;;;;;;6.97;3.53;;;;;;;2.83;100.00;100203.74;1708005;82;934782;-75
2021/01/31 09:05:18;;;;;;;9.90;4.20;;;;;;;2.97;100.00;100204.53;1696874;82;934641;-77
2021/01/31 09:07:51;;;;;;;12.10;3.63;;;;;;;3.05;100.00;100201.89;1708095;82;932819;-81
2021/01/31 09:10:40;;;;;;;9.47;3.70;;;;;;;3.11;100.00;100197.63;1707975;82;936649;-77
2021/01/31 09:13:15;;;;;;;6.30;3.63;;;;;;;3.13;100.00;100189.12;1697038;82;937988;-77
2021/01/31 09:15:45;;;;;;;8.80;4.70;;;;;;;3.20;100.00;100184.30;1708071;82;932816;-78
2021/01/31 09:18:20;;;;;;;5.67;3.80;;;;;;;3.17;100.00;100183.41;1718709;77;934485;-76
2021/01/31 09:20:51;;;;;;;7.97;4.03;;;;;;;3.20;100.00;100175.53;1814319;77;932648;-75
2021/01/31 09:23:26;;;;;;;6.23;3.80;;;;;;;3.21;100.00;100184.02;1814176;77;934679;-77
2021/01/31 09:25:56;;;;;;;6.50;4.90;;;;;;;3.35;100.00;100176.80;1802225;77;934593;-77
2021/01/31 09:28:27;;;;;;;6.63;3.90;;;;;;;3.47;100.00;100173.38;1814350;77;934545;-76
2021/01/31 09:31:01;;;;;;;16.32;4.85;;;;;;;3.52;100.00;100177.03;1802190;77;934627;-77
2021/01/31 09:33:37;;;;;;;10.10;4.93;;;;;;;3.57;100.00;100179.02;1814282;78;936797;-76
2021/01/31 09:36:19;;;;;;;9.70;4.37;;;;;;;3.60;100.00;100168.88;1801935;77;946219;-77
2021/01/31 09:38:50;;;;;;;9.83;4.30;;;;;;;3.68;100.00;100171.17;1814199;77;932593;-74
2021/01/31 09:41:23;;;;;;;10.55;4.40;;;;;;;3.59;100.00;100171.36;1814167;78;934452;-74
2021/01/31 09:43:55;;;;;;;11.30;4.43;;;;;;;3.74;100.00;100165.20;1802437;77;936680;-78
2021/01/31 09:46:26;;;;;;;8.43;4.20;;;;;;;3.67;100.00;100173.66;1814408;77;936618;-75
2021/01/31 09:49:04;;;;;;;9.73;4.20;;;;;;;3.58;100.00;100177.39;1774102;78;934862;-76
2021/01/31 09:51:35;;;;;;;9.13;4.50;;;;;;;3.67;100.00;100173.66;1788786;79;934722;-75
2021/01/31 09:54:17;;;;;;;8.03;4.93;;;;;;;3.56;100.00;100168.56;1807956;77;934461;-75
2021/01/31 09:56:50;;;;;;;11.93;6.00;;;;;;;3.65;100.00;100162.08;1814416;77;932689;-75
2021/01/31 09:59:23;;;;;;;8.20;4.63;;;;;;;3.75;100.00;100151.77;1814335;77;936607;-75
2021/01/31 10:01:56;;;;;;;9.40;4.73;;;;;;;3.68;100.00;100148.40;1802499;77;934620;-74
2021/01/31 10:04:28;;;;;;;7.57;4.50;;;;;;;3.70;100.00;100144.84;1813887;77;934650;-75
2021/01/31 10:07:02;;;;;;;10.55;4.25;;;;;;;3.76;100.00;100150.69;1802392;78;934631;-75
2021/01/31 10:09:34;;;;;;;11.43;5.27;;;;;;;3.84;100.00;100146.10;1813552;77;936643;-76
2021/01/31 10:12:28;;;;;;;8.75;5.37;;;;;;;3.89;100.00;100136.55;1802476;77;936671;-76
2021/01/31 10:15:01;;;;;;;9.88;5.05;;;;;;;3.87;100.00;100134.59;1802460;77;934388;-74
2021/01/31 10:17:39;;;;;;;10.73;5.37;;;;;;;4.01;100.00;100124.31;1814341;77;934732;-75
2021/01/31 10:20:34;;;;;;;7.35;4.33;;;;;;;4.03;100.00;100109.75;1802440;77;936682;-76
2021/01/31 10:23:11;;;;;;;9.60;4.72;;;;;;;4.28;100.00;100096.77;1802309;77;938570;-75
2021/01/31 10:25:44;;;;;;;7.63;4.23;;;;;;;4.31;100.00;100083.07;1814185;77;932566;-75
2021/01/31 10:28:16;;;;;;;8.63;4.37;;;;;;;4.39;100.00;100079.29;1802516;77;934506;-75
2021/01/31 10:30:50;;;;;;;8.83;4.57;;;;;;;4.54;100.00;100086.80;1812963;77;932661;-74
2021/01/31 10:33:42;;;;;;;8.23;4.97;;;;;;;4.64;100.00;100093.76;1814323;78;934443;-75
2021/01/31 10:36:25;;;;;;;10.20;4.73;;;;;;;4.57;100.00;100087.67;1781976;79;934577;-74
2021/01/31 10:38:57;;;;;;;8.43;4.60;;;;;;;4.53;100.00;100083.80;1754130;79;936732;-77
2021/01/31 10:41:28;;;;;;;7.63;4.60;;;;;;;4.61;100.00;100074.21;1814315;77;934446;-75
2021/01/31 10:44:01;;;;;;;8.23;4.87;;;;;;;4.60;100.00;100063.75;1802492;78;934486;-77
2021/01/31 10:46:32;;;;;;;10.40;4.50;;;;;;;4.67;100.00;100052.50;1814265;77;934435;-76
2021/01/31 10:49:02;;;;;;;6.80;4.42;;;;;;;4.69;100.00;100049.78;1802365;78;939582;-75
2021/01/31 10:51:34;;;;;;;11.70;4.57;;;;;;;4.59;100.00;100047.80;1814269;78;934439;-76
2021/01/31 10:54:05;;;;;;;6.45;4.22;;;;;;;4.67;100.00;100036.00;1802390;77;936684;-77
2021/01/31 10:56:35;;;;;;;7.00;4.13;;;;;;;4.71;100.00;100034.38;1814298;77;934521;-76
2021/01/31 10:59:05;;;;;;;9.00;4.97;;;;;;;4.72;100.00;100029.98;1802498;77;935444;-76
2021/01/31 11:01:35;;;;;;;10.27;4.97;;;;;;;4.71;100.00;100024.74;1814289;77;934645;-76
2021/01/31 11:04:05;;;;;;;9.63;4.75;;;;;;;4.80;100.00;100023.98;1802390;77;936514;-76
2021/01/31 11:06:35;;;;;;;8.90;4.70;;;;;;;4.87;100.00;100012.20;1814294;77;934589;-76
2021/01/31 11:09:06;;;;;;;7.83;4.97;;;;;;;4.89;100.00;100006.41;1802531;78;934479;-76
2021/01/31 11:11:36;;;;;;;8.37;4.60;;;;;;;5.03;100.00;100010.33;1814370;77;934478;-77
2021/01/31 11:14:06;;;;;;;8.75;4.67;;;;;;;4.98;100.00;100009.77;1802413;77;937313;-77
2021/01/31 11:16:36;;;;;;;9.77;5.17;;;;;;;5.12;100.00;100004.59;1814253;78;934630;-76
2021/01/31 11:19:06;;;;;;;9.37;4.83;;;;;;;5.11;100.00;99999.34;1802544;77;934468;-76
2021/01/31 11:21:36;;;;;;;8.40;5.55;;;;;;;5.16;100.00;99993.86;1814364;77;932517;-76
2021/01/31 11:24:07;;;;;;;8.98;4.47;;;;;;;5.15;100.00;99987.52;1802571;77;932452;-76
2021/01/31 11:26:37;;;;;;;6.63;4.70;;;;;;;5.16;100.00;99978.17;1812366;77;930689;-77
2021/01/31 11:29:07;;;;;;;8.47;4.80;;;;;;;5.23;100.00;99976.53;1791451;77;934013;-77
2021/01/31 11:31:37;;;;;;;9.33;5.80;;;;;;;5.37;100.00;99976.30;1828329;77;930796;-77
2021/01/31 11:34:07;;;;;;;6.17;4.77;;;;;;;5.29;100.00;99960.31;1816546;77;932297;-77
2021/01/31 11:36:36;;;;;;;7.97;5.90;;;;;;;5.31;100.00;99959.47;1828409;77;930575;-77
2021/01/31 11:39:08;;;;;;;7.97;4.85;;;;;;;5.33;100.00;99964.17;1816530;77;932491;-77
2021/01/31 11:41:39;;;;;;;7.77;5.50;;;;;;;5.28;100.00;99960.03;1828187;76;930486;-77
2021/01/31 11:44:10;;;;;;;8.87;5.47;;;;;;;5.32;100.00;99952.88;1816498;77;932407;-77
2021/01/31 11:46:40;;;;;;;9.90;5.63;;;;;;;5.35;100.00;99949.02;1828352;77;930515;-77
2021/01/31 11:49:10;;;;;;;9.53;5.23;;;;;;;5.34;100.00;99950.14;1816446;77;932557;-77
2021/01/31 11:51:40;;;;;;;8.67;5.37;;;;;;;5.34;100.00;99958.95;1828275;77;930441;-77
2021/01/31 11:54:10;;;;;;;6.87;4.83;;;;;;;5.34;100.00;99958.95;1816433;77;932564;-76